Terminal Aerodrome Forecast
Issued by NWS Binghamton, NY

Home | Current Version | Previous Version | Text Only | Print | Product List | Glossary On
Versions: 1 2 3 4 5 6 7 8 9 10 11 12 13 14 15 16 17 18 19 20 21 22 23
000
FTUS41 KBGM 200522
TAFSYR
TAF
KSYR 200522Z 2006/2106 30010KT P6SM -SHSN BKN035 OVC060
     FM200800 29011G18KT P6SM -SHSN OVC025
     FM201400 30013G23KT P6SM -SHSN OVC035
     FM201900 30014G24KT P6SM BKN045
     FM210200 29006KT P6SM BKN050=

USA.gov is the U.S. government's official web portal to all federal, state and local government web resources and services.